Time;durP1;ratioP1;P1;durP2;ratioP2;P2;SDS_P1;SDS_P2;PMS_P1;PMS_P2;Temp;Humidity;BMP_temperature;BMP_pressure;BME280_temperature;BME280_humidity;BME280_pressure;Samples;Min_cycle;Max_cycle;Signal;HPM_P1;HPM_P2
2022/01/02 00:00:41;;;;;;;13.53;6.40;;;10.50;90.50;;;11.00;61.02;99331.59;4940804;28;122758;-87
2022/01/02 00:03:09;;;;;;;11.07;6.67;;;10.50;90.50;;;10.99;61.45;99329.94;4954238;28;116946;-88
2022/01/02 00:05:40;;;;;;;15.53;7.27;;;10.60;90.50;;;10.99;61.36;99335.47;4983258;28;114424;-87
2022/01/02 00:08:10;;;;;;;10.80;6.50;;;10.50;90.50;;;10.99;61.20;99334.66;4950611;28;124301;-85
2022/01/02 00:10:49;;;;;;;8.77;5.43;;;10.50;90.50;;;11.01;61.08;99332.41;4953286;28;123308;-86
2022/01/02 00:13:31;;;;;;;9.17;5.50;;;10.50;90.50;;;11.01;61.13;99335.97;4951276;28;113350;-87
2022/01/02 00:16:04;;;;;;;9.00;6.87;;;10.50;90.50;;;10.99;61.27;99335.47;4968151;28;114105;-88
2022/01/02 00:18:38;;;;;;;8.63;5.53;;;10.50;90.50;;;10.99;61.24;99341.00;4947739;28;123366;-88
2022/01/02 00:21:07;;;;;;;8.87;5.83;;;10.50;90.50;;;10.95;60.82;99342.72;4955133;28;121768;-87
2022/01/02 00:26:44;;;;;;;12.13;7.00;;;10.40;90.40;;;10.92;61.38;99325.94;4956608;28;114165;-87
2022/01/02 00:29:13;;;;;;;13.00;8.00;;;10.40;90.40;;;10.88;61.01;99322.09;4982904;28;124601;-88
2022/01/02 00:31:41;;;;;;;10.80;7.47;;;10.40;90.40;;;10.86;60.92;99314.13;4954063;28;124843;-87
2022/01/02 00:34:10;;;;;;;11.00;6.90;;;10.40;90.40;;;10.86;61.23;99314.13;4987643;28;114949;-87
2022/01/02 00:37:17;;;;;;;12.73;7.80;;;10.40;90.40;;;10.84;60.94;99313.59;4953288;28;115002;-87
2022/01/02 00:39:44;;;;;;;9.63;6.60;;;10.40;90.40;;;10.83;61.19;99326.63;4960757;28;124669;-88
2022/01/02 00:42:20;;;;;;;9.63;6.47;;;10.40;90.40;;;10.86;61.38;99324.38;4956546;28;124166;-88
2022/01/02 00:45:20;;;;;;;11.70;6.80;;;10.40;90.50;;;10.85;61.01;99318.00;4952895;28;114403;-87
2022/01/02 00:48:13;;;;;;;12.13;7.10;;;10.30;90.40;;;10.82;60.95;99318.59;4950525;28;114043;-85
2022/01/02 00:51:12;;;;;;;9.90;6.40;;;10.30;90.40;;;10.77;61.31;99321.44;4937258;28;123310;-87
2022/01/02 00:53:46;;;;;;;12.63;7.30;;;10.30;90.40;;;10.73;61.17;99321.25;4941320;28;123436;-86
2022/01/02 00:56:52;;;;;;;13.53;8.10;;;10.30;90.50;;;10.70;61.13;99316.31;4950266;28;114181;-86
2022/01/02 01:00:06;;;;;;;9.93;6.60;;;10.20;90.40;;;10.66;61.33;99311.69;4950106;28;113787;-87
2022/01/02 01:02:55;;;;;;;11.80;7.40;;;10.20;90.50;;;10.60;61.13;99306.25;4936145;28;123053;-86
2022/01/02 01:05:42;;;;;;;12.03;7.70;;;10.10;90.40;;;10.56;61.49;99296.91;4941768;28;123142;-86
2022/01/02 01:08:29;;;;;;;9.60;6.00;;;10.10;90.50;;;10.53;61.23;99289.25;4951543;28;114425;-87
2022/01/02 01:10:56;;;;;;;10.80;6.60;;;10.10;90.50;;;10.50;61.57;99306.38;4950284;28;113947;-87
2022/01/02 01:13:23;;;;;;;15.40;7.63;;;10.00;90.50;;;10.49;61.92;99293.72;4960345;28;123611;-87
2022/01/02 01:15:50;;;;;;;13.83;7.20;;;10.00;90.50;;;10.51;61.48;99290.66;4968910;28;123568;-87
2022/01/02 01:18:17;;;;;;;11.17;7.83;;;10.00;90.60;;;10.53;61.73;99289.25;4960579;28;113348;-88
2022/01/02 01:21:04;;;;;;;10.00;6.87;;;10.00;90.60;;;10.54;61.29;99290.88;4943443;28;114170;-86
2022/01/02 01:23:50;;;;;;;10.07;7.00;;;10.00;90.60;;;10.53;61.29;99288.38;4937473;28;123964;-87
2022/01/02 01:26:38;;;;;;;10.97;7.37;;;10.00;90.60;;;10.53;61.39;99288.38;4949318;28;123620;-87
2022/01/02 01:29:05;;;;;;;10.93;6.83;;;10.00;90.60;;;10.52;61.30;99275.72;4949000;28;115385;-87
2022/01/02 01:31:34;;;;;;;9.50;6.47;;;10.00;90.60;;;10.52;61.58;99279.28;4945657;28;114161;-87
2022/01/02 01:34:03;;;;;;;8.30;6.50;;;10.00;90.60;;;10.52;61.36;99275.72;4942768;28;123576;-87
2022/01/02 01:36:50;;;;;;;10.37;6.30;;;10.00;90.60;;;10.53;61.19;99267.13;4950376;28;122793;-86
2022/01/02 01:39:18;;;;;;;10.30;6.40;;;10.00;90.60;;;10.52;61.35;99271.00;4953303;28;114354;-87
2022/01/02 01:42:37;;;;;;;8.53;6.00;;;10.00;90.60;;;10.51;61.37;99271.31;4954702;28;114214;-87
2022/01/02 01:47:54;;;;;;;9.47;6.33;;;10.00;90.60;;;10.47;61.66;99268.31;4963598;28;123195;-87
2022/01/02 01:50:28;;;;;;;8.53;5.67;;;10.00;90.60;;;10.47;61.76;99262.78;4953425;28;113012;-87
2022/01/02 01:52:55;;;;;;;8.63;6.20;;;10.00;90.60;;;10.47;61.28;99260.03;4962360;28;113874;-87
2022/01/02 01:55:22;;;;;;;9.57;5.73;;;10.00;90.50;;;10.46;61.71;99261.16;4934330;28;123122;-87
2022/01/02 01:57:51;;;;;;;8.50;5.73;;;9.90;91.30;;;10.46;61.23;99260.34;4934462;28;123330;-87
2022/01/02 02:00:39;;;;;;;8.67;5.50;;;10.00;90.50;;;10.43;61.39;99261.75;4951339;28;114337;-87
2022/01/02 02:03:06;;;;;;;10.60;6.17;;;10.00;90.50;;;10.41;61.21;99261.25;4950363;28;114395;-86
2022/01/02 02:05:35;;;;;;;10.23;6.33;;;9.90;90.90;;;10.41;61.27;99254.91;4949662;28;124569;-86
2022/01/02 02:08:04;;;;;;;8.80;5.87;;;9.90;90.90;;;10.39;61.54;99260.72;4949944;28;122984;-87
2022/01/02 02:11:08;;;;;;;11.63;5.40;;;9.90;90.90;;;10.38;61.26;99248.84;4951377;28;114442;-87
2022/01/02 02:13:34;;;;;;;8.83;5.60;;;9.90;90.90;;;10.37;61.19;99246.41;4949943;28;114463;-87
2022/01/02 02:16:21;;;;;;;9.07;5.83;;;9.90;90.90;;;10.39;60.97;99239.44;4951033;28;123316;-87
2022/01/02 02:18:47;;;;;;;6.80;5.03;;;9.90;90.90;;;10.38;61.64;99239.75;4958094;28;124316;-87
2022/01/02 02:21:14;;;;;;;7.47;5.40;;;9.90;90.90;;;10.37;61.69;99235.34;4950933;28;114672;-87
2022/01/02 02:24:04;;;;;;;8.80;5.60;;;9.90;90.90;;;10.38;60.97;99228.69;4967993;28;114965;-86
2022/01/02 02:27:08;;;;;;;6.33;4.83;;;9.90;90.90;;;10.35;61.38;99224.59;4949962;28;123709;-87
2022/01/02 02:29:53;;;;;;;8.13;5.47;;;9.80;90.90;;;10.35;61.25;99221.00;4948478;28;124191;-87
2022/01/02 02:32:21;;;;;;;8.97;6.13;;;9.80;90.80;;;10.31;61.38;99217.19;4948502;28;114005;-87
2022/01/02 02:35:18;;;;;;;7.20;5.27;;;9.90;90.80;;;10.26;61.16;99200.69;4950375;28;114511;-86
2022/01/02 02:37:46;;;;;;;8.17;5.50;;;9.80;90.80;;;10.24;61.26;99202.94;4949669;28;123450;-87
2022/01/02 02:40:17;;;;;;;13.53;6.20;;;9.80;90.80;;;10.23;61.22;99204.84;4960003;28;124363;-86
2022/01/02 02:43:48;;;;;;;8.60;6.00;;;9.80;90.90;;;10.21;61.10;99206.28;4955564;28;114716;-87
2022/01/02 02:50:10;;;;;;;9.33;5.80;;;9.70;90.80;;;10.07;61.43;99198.75;4982347;28;124664;-87
2022/01/02 02:52:57;;;;;;;11.80;6.70;;;9.60;90.80;;;10.04;61.22;99190.25;4942011;28;123347;-86
2022/01/02 02:55:47;;;;;;;11.50;6.30;;;9.60;90.80;;;10.01;61.53;99185.34;4966136;28;113455;-88
2022/01/02 02:58:55;;;;;;;9.27;5.80;;;9.60;90.80;;;9.98;61.37;99172.13;4953067;28;114088;-86
2022/01/02 03:01:28;;;;;;;9.63;6.90;;;9.50;90.80;;;9.95;61.58;99174.38;4959810;28;124056;-87
2022/01/02 03:04:15;;;;;;;8.50;6.03;;;9.50;90.90;;;9.96;61.38;99175.19;4963723;28;123915;-86
2022/01/02 03:06:42;;;;;;;10.10;5.87;;;9.50;90.90;;;9.95;61.43;99176.31;4952882;28;113742;-86
2022/01/02 03:09:51;;;;;;;9.57;7.20;;;9.40;90.90;;;9.95;61.49;99171.59;4957572;28;114207;-86
2022/01/02 03:12:36;;;;;;;10.63;7.17;;;9.50;90.90;;;9.91;61.45;99164.22;4945241;28;123178;-87
2022/01/02 03:15:03;;;;;;;9.40;6.90;;;9.40;90.80;;;9.81;61.46;99158.88;4951268;28;123253;-87
2022/01/02 03:17:31;;;;;;;10.70;6.80;;;9.30;90.80;;;9.68;61.25;99152.97;4962890;28;114576;-86
2022/01/02 03:20:16;;;;;;;13.07;6.90;;;9.20;90.80;;;9.60;61.27;99150.06;4955943;28;114379;-87
2022/01/02 03:22:43;;;;;;;11.90;5.00;;;9.20;90.80;;;9.57;61.61;99151.47;4952286;28;124883;-86
2022/01/02 03:25:30;;;;;;;9.63;6.00;;;9.10;90.80;;;9.60;61.84;99148.13;4957589;28;123832;-87
2022/01/02 03:28:16;;;;;;;10.27;6.10;;;9.10;90.90;;;9.62;61.58;99148.66;4953926;28;113008;-86
2022/01/02 03:31:02;;;;;;;8.73;4.97;;;9.10;90.90;;;9.64;61.77;99132.59;4958814;28;111930;-86
2022/01/02 03:34:06;;;;;;;10.10;6.03;;;9.20;91.00;;;9.67;61.76;99140.31;4937853;28;123978;-86
2022/01/02 03:36:32;;;;;;;8.10;5.60;;;9.10;90.90;;;9.67;61.43;99143.06;4951296;28;122961;-86
2022/01/02 03:38:59;;;;;;;8.03;5.10;;;9.20;91.00;;;9.69;61.64;99148.25;4951133;28;113831;-87
2022/01/02 03:41:26;;;;;;;11.77;5.83;;;9.20;91.00;;;9.71;61.49;99140.50;4954037;28;113807;-86
2022/01/02 03:43:55;;;;;;;8.87;5.50;;;9.20;91.00;;;9.72;61.46;99148.50;4953108;28;123267;-87
2022/01/02 03:46:42;;;;;;;8.83;5.37;;;9.40;91.00;;;9.71;61.32;99152.38;4952556;28;123682;-87
2022/01/02 03:49:11;;;;;;;9.40;5.40;;;9.20;90.90;;;9.69;61.49;99138.03;4954971;28;114628;-86
2022/01/02 03:51:56;;;;;;;8.93;6.47;;;9.20;90.90;;;9.69;61.06;99132.53;4950709;28;114446;-86
2022/01/02 03:55:18;;;;;;;8.77;5.50;;;9.20;90.80;;;9.62;61.46;99128.53;4951146;28;123243;-86
2022/01/02 03:57:47;;;;;;;8.53;6.20;;;9.10;90.70;;;9.55;61.20;99130.81;4963966;28;122736;-86
2022/01/02 04:00:33;;;;;;;12.37;5.97;;;9.10;90.70;;;9.49;61.22;99119.03;4983165;28;113582;-86
2022/01/02 04:03:18;;;;;;;8.60;5.70;;;9.00;90.70;;;9.46;61.27;99116.88;4950745;28;113895;-87
2022/01/02 04:05:46;;;;;;;8.60;5.43;;;9.00;90.60;;;9.39;61.12;99110.91;4938390;28;123496;-87
2022/01/02 04:08:13;;;;;;;8.40;5.50;;;8.90;90.60;;;9.33;61.29;99110.16;4963379;28;121908;-87
2022/01/02 04:10:40;;;;;;;8.13;5.57;;;8.90;90.60;;;9.29;61.35;99123.72;4956293;28;113333;-86
2022/01/02 04:13:06;;;;;;;9.10;6.30;;;8.80;90.60;;;9.26;61.40;99113.25;4936187;28;114142;-87
2022/01/02 04:15:34;;;;;;;7.30;4.97;;;8.80;90.60;;;9.25;61.38;99111.63;4953054;28;123021;-86
2022/01/02 04:18:03;;;;;;;6.33;4.60;;;8.80;90.70;;;9.28;61.40;99111.03;4952913;28;123683;-87
2022/01/02 04:20:29;;;;;;;10.37;6.37;;;8.80;90.70;;;9.31;61.21;99100.53;4937528;28;114255;-87
2022/01/02 04:22:56;;;;;;;8.20;5.83;;;8.80;90.70;;;9.33;61.10;99090.84;4956648;28;113220;-87
2022/01/02 04:25:22;;;;;;;6.87;5.00;;;8.80;90.70;;;9.36;61.08;99101.28;4956028;28;125773;-85
2022/01/02 04:27:51;;;;;;;9.00;5.60;;;8.80;90.70;;;9.37;61.20;99107.63;4958012;28;122501;-87
2022/01/02 04:30:20;;;;;;;7.50;5.50;;;8.80;90.70;;;9.36;61.08;99101.28;4950248;28;114236;-87
2022/01/02 04:32:48;;;;;;;7.37;4.63;;;8.90;90.70;;;9.38;61.09;99098.25;4943316;28;114750;-87
2022/01/02 04:35:16;;;;;;;7.50;5.50;;;8.90;90.70;;;9.40;61.09;99098.75;4960023;28;123394;-87
2022/01/02 04:38:01;;;;;;;7.80;5.43;;;8.90;90.70;;;9.43;61.14;99089.88;4958962;28;123690;-87
2022/01/02 04:40:28;;;;;;;6.47;4.80;;;8.90;90.70;;;9.41;61.03;99089.38;4952481;28;114074;-87
2022/01/02 04:42:55;;;;;;;10.60;5.67;;;8.90;90.60;;;9.41;60.82;99092.94;4951490;28;114064;-87
2022/01/02 04:45:21;;;;;;;7.90;4.90;;;8.90;90.60;;;9.39;60.93;99089.66;4957202;28;123298;-86
2022/01/02 04:47:50;;;;;;;7.03;5.23;;;8.90;90.60;;;9.36;61.18;99084.75;4953370;28;123873;-85
2022/01/02 04:50:18;;;;;;;8.23;5.27;;;8.90;90.50;;;9.34;60.81;99086.97;4951920;28;113532;-86
2022/01/02 04:52:46;;;;;;;6.50;4.97;;;8.80;90.50;;;9.35;60.94;99079.50;4954757;28;113232;-87
2022/01/02 04:55:15;;;;;;;7.97;6.07;;;8.80;90.50;;;9.34;60.88;99072.38;4953388;28;123276;-87
2022/01/02 04:57:41;;;;;;;6.60;5.03;;;8.80;90.50;;;9.32;60.71;99072.66;4950224;28;123517;-87
2022/01/02 05:00:27;;;;;;;6.50;4.90;;;8.80;90.50;;;9.33;60.90;99062.47;4949214;28;114996;-86
2022/01/02 05:02:55;;;;;;;7.10;5.57;;;8.80;90.50;;;9.28;60.78;99068.88;4950868;28;115175;-86
2022/01/02 05:05:22;;;;;;;7.37;5.50;;;8.80;90.40;;;9.26;60.99;99069.16;4947331;28;123796;-87
2022/01/02 05:08:08;;;;;;;7.70;5.40;;;8.80;90.40;;;9.28;60.77;99072.44;4950198;28;124203;-85
2022/01/02 05:10:36;;;;;;;6.67;5.10;;;8.70;90.40;;;9.28;60.78;99069.69;4982130;28;113558;-86
2022/01/02 05:13:03;;;;;;;6.80;5.17;;;8.70;90.40;;;9.29;61.08;99063.06;4950391;28;113079;-86
2022/01/02 05:15:29;;;;;;;6.53;5.30;;;8.70;90.40;;;9.32;60.85;99058.06;4950039;28;124295;-85
2022/01/02 05:17:55;;;;;;;7.23;4.90;;;8.80;90.50;;;9.34;60.90;99048.38;4959658;28;123730;-85
2022/01/02 05:20:24;;;;;;;7.20;4.97;;;8.80;90.50;;;9.36;60.66;99048.91;4941183;28;112449;-87
2022/01/02 05:22:52;;;;;;;6.03;4.50;;;9.20;90.60;;;9.39;60.63;99050.25;4950792;28;113838;-86
2022/01/02 05:25:21;;;;;;;9.43;5.07;;;8.80;90.40;;;9.39;60.66;99048.28;4957422;28;124193;-87
2022/01/02 05:27:49;;;;;;;6.80;5.03;;;8.90;90.50;;;9.40;60.64;99046.34;4954165;28;124583;-87
2022/01/02 05:30:17;;;;;;;6.17;4.70;;;8.90;90.40;;;9.40;60.57;99041.69;4953554;28;114745;-86
2022/01/02 05:32:45;;;;;;;7.00;4.60;;;8.80;90.40;;;9.41;60.52;99039.75;4954262;28;114001;-87
2022/01/02 05:35:13;;;;;;;7.10;4.40;;;8.90;90.40;;;9.42;60.66;99046.88;4951667;28;122799;-86
2022/01/02 05:38:00;;;;;;;7.50;5.23;;;8.90;90.40;;;9.44;60.50;99039.13;4950038;28;123751;-87
2022/01/02 05:40:46;;;;;;;6.27;5.00;;;8.90;90.40;;;9.43;60.62;99037.47;4935401;28;113139;-88
2022/01/02 05:43:15;;;;;;;7.77;4.43;;;8.90;90.40;;;9.42;60.55;99041.38;4937504;28;112655;-86
2022/01/02 05:46:05;;;;;;;6.57;4.60;;;8.90;90.40;;;9.43;60.69;99037.47;4934354;28;124415;-87
2022/01/02 05:48:36;;;;;;;8.50;5.00;;;8.90;90.40;;;9.41;60.08;99036.97;4937120;28;123827;-87
2022/01/02 05:51:23;;;;;;;6.00;5.03;;;8.90;90.30;;;9.36;60.37;99029.59;4951943;28;115201;-86
2022/01/02 05:53:51;;;;;;;6.33;4.93;;;8.80;90.30;;;9.31;60.63;99021.41;4941411;28;115610;-87
2022/01/02 05:56:36;;;;;;;8.13;4.97;;;8.80;90.30;;;9.31;60.64;99026.09;4949271;28;123740;-87
2022/01/02 05:59:03;;;;;;;7.00;5.20;;;8.80;90.30;;;9.31;60.63;99023.34;4960887;28;123374;-86
2022/01/02 06:01:30;;;;;;;6.20;4.80;;;8.80;90.40;;;9.29;60.67;99016.19;4946192;28;113445;-87
2022/01/02 06:03:57;;;;;;;7.60;5.00;;;8.80;90.40;;;9.29;60.66;99018.09;4932021;28;113965;-86
2022/01/02 06:06:25;;;;;;;8.00;5.40;;;8.80;90.40;;;9.27;60.62;99014.84;4943454;28;123381;-86
2022/01/02 06:08:52;;;;;;;10.03;5.17;;;8.80;90.40;;;9.24;60.93;99010.75;4941420;28;123921;-87
2022/01/02 06:11:18;;;;;;;6.87;5.00;;;8.70;90.40;;;9.22;60.82;99010.22;4954525;28;113392;-87
2022/01/02 06:13:45;;;;;;;7.00;4.90;;;8.70;90.40;;;9.22;60.78;99007.47;4954457;28;113921;-87
2022/01/02 06:16:12;;;;;;;9.70;5.60;;;8.70;90.40;;;9.25;60.50;99006.06;4942412;28;124031;-87
2022/01/02 06:18:41;;;;;;;5.73;4.87;;;8.70;90.50;;;9.28;60.62;99016.47;4953745;28;123805;-85
2022/01/02 06:21:10;;;;;;;6.80;4.90;;;8.70;90.50;;;9.27;60.58;99004.63;4954340;28;114064;-86
2022/01/02 06:23:37;;;;;;;6.00;4.83;;;8.80;90.50;;;9.27;60.79;99004.63;4952258;28;113663;-86
2022/01/02 06:26:08;;;;;;;5.30;3.83;;;8.70;90.40;;;9.29;60.61;98996.06;4954696;28;124022;-88
2022/01/02 06:28:37;;;;;;;6.13;4.90;;;8.70;90.40;;;9.28;60.54;98995.25;4956229;28;124937;-87
2022/01/02 06:31:41;;;;;;;6.10;4.83;;;8.70;90.40;;;9.30;60.48;98992.19;4954523;28;114506;-85
2022/01/02 06:34:10;;;;;;;6.37;4.57;;;8.70;90.40;;;9.25;60.80;98995.84;4953711;28;114026;-87
2022/01/02 06:36:36;;;;;;;7.03;5.10;;;8.70;90.40;;;9.25;60.58;98990.31;4950898;28;123534;-87
2022/01/02 06:39:04;;;;;;;8.83;5.00;;;8.70;90.40;;;9.19;60.77;98985.22;4947713;28;123271;-87
2022/01/02 06:41:30;;;;;;;7.20;5.03;;;8.70;90.40;;;9.15;60.87;98990.47;4958358;28;115277;-84
2022/01/02 06:43:57;;;;;;;5.23;4.63;;;8.60;90.40;;;9.12;60.86;98993.84;4955296;28;114379;-86
2022/01/02 06:46:23;;;;;;;5.90;4.50;;;8.60;90.40;;;9.12;60.62;98991.06;4952019;28;123302;-86
2022/01/02 06:48:52;;;;;;;9.47;5.37;;;8.60;90.40;;;9.11;60.72;98999.63;4945903;28;123050;-87
2022/01/02 06:51:18;;;;;;;5.93;4.77;;;8.60;90.40;;;9.11;60.69;99003.22;4943470;28;113500;-87
2022/01/02 06:53:46;;;;;;;7.07;4.90;;;8.60;90.40;;;9.09;60.72;98996.38;4946903;28;113248;-87
2022/01/02 06:56:31;;;;;;;6.80;4.70;;;8.60;90.40;;;9.11;60.67;98994.13;4956651;28;123999;-86
2022/01/02 06:59:18;;;;;;;5.87;4.63;;;8.60;90.40;;;9.12;60.76;98991.06;4945949;28;123744;-87
2022/01/02 07:01:45;;;;;;;8.37;5.47;;;8.60;90.40;;;9.10;60.74;98982.28;4951161;28;113985;-86
2022/01/02 07:04:12;;;;;;;7.63;5.27;;;8.60;90.40;;;9.11;60.68;98972.06;4952304;28;114157;-86
2022/01/02 07:06:38;;;;;;;6.00;4.60;;;8.60;90.40;;;9.13;60.61;98969.84;4954925;28;124449;-86
2022/01/02 07:09:05;;;;;;;8.40;4.90;;;8.60;90.40;;;9.12;60.65;98960.75;4955472;28;123607;-86
2022/01/02 07:11:33;;;;;;;7.80;5.53;;;8.60;90.30;;;9.11;60.53;98953.63;4971530;28;113567;-87
2022/01/02 07:14:18;;;;;;;7.37;4.67;;;8.60;90.30;;;9.14;60.39;98977.81;4953490;28;113109;-87
2022/01/02 07:17:03;;;;;;;5.67;4.57;;;8.60;90.30;;;9.12;60.31;98974.53;4938962;28;123254;-87
2022/01/02 07:19:31;;;;;;;5.83;4.53;;;8.60;90.20;;;9.10;60.46;98970.44;4980098;28;123882;-86
2022/01/02 07:22:16;;;;;;;7.40;5.17;;;8.60;90.30;;;9.10;60.35;98971.25;4946689;28;113467;-86
2022/01/02 07:24:50;;;;;;;7.20;5.07;;;8.60;90.20;;;9.04;60.41;98970.50;4948236;28;113826;-84
2022/01/02 07:27:19;;;;;;;6.87;4.70;;;8.70;90.30;;;9.03;60.41;98970.81;4948670;28;124393;-87
2022/01/02 07:29:48;;;;;;;5.03;4.47;;;8.60;90.30;;;9.03;60.73;98960.63;4951553;28;123782;-88
2022/01/02 07:32:18;;;;;;;6.53;4.40;;;8.70;90.30;;;9.04;60.53;98956.72;4949522;28;114629;-89
2022/01/02 07:34:44;;;;;;;7.23;4.40;;;8.50;90.20;;;9.06;60.76;98960.00;4950052;28;114813;-88
2022/01/02 07:37:11;;;;;;;6.10;4.67;;;8.50;90.20;;;9.11;60.41;98953.63;4943910;28;123756;-89
2022/01/02 07:39:38;;;;;;;5.17;4.17;;;8.60;90.30;;;9.15;60.46;98962.09;4947618;28;122971;-88
2022/01/02 07:42:08;;;;;;;4.90;3.87;;;8.60;90.30;;;9.20;60.41;98976.63;4937457;28;113882;-88
2022/01/02 07:44:37;;;;;;;6.10;4.50;;;8.60;90.30;;;9.23;60.50;98976.00;4946044;28;113113;-88
2022/01/02 07:47:07;;;;;;;5.30;3.73;;;8.70;90.30;;;9.26;60.40;98971.84;4952687;28;125142;-87
2022/01/02 07:49:37;;;;;;;4.20;3.60;;;8.70;90.30;;;9.28;60.23;98973.19;4952744;28;123895;-87
2022/01/02 07:52:05;;;;;;;5.70;3.60;;;8.70;90.20;;;9.28;60.05;98967.66;4946882;28;114539;-88
2022/01/02 07:55:09;;;;;;;5.70;4.10;;;8.70;90.20;;;9.30;60.02;98975.66;4948248;28;112149;-89
2022/01/02 07:57:37;;;;;;;5.67;4.10;;;8.70;90.20;;;9.28;60.00;98973.19;4945301;28;123100;-86
2022/01/02 08:00:23;;;;;;;5.13;3.57;;;8.70;90.20;;;9.31;60.07;98968.19;4942749;28;123959;-88
2022/01/02 08:02:54;;;;;;;5.80;3.70;;;8.70;90.10;;;9.30;60.02;98970.13;4949956;28;113662;-88
2022/01/02 08:05:22;;;;;;;6.80;4.27;;;8.90;90.20;;;9.31;60.19;98970.94;4945402;28;114339;-87
2022/01/02 08:07:51;;;;;;;4.90;4.00;;;8.70;90.10;;;9.31;59.88;98970.94;4947174;28;123022;-86
2022/01/02 08:10:18;;;;;;;5.40;4.20;;;8.80;90.10;;;9.34;59.97;98964.84;4946581;28;122861;-87
2022/01/02 08:12:44;;;;;;;4.90;3.67;;;8.80;90.20;;;9.38;60.07;98971.41;4950930;28;114619;-87
2022/01/02 08:15:32;;;;;;;6.30;4.53;;;8.80;90.20;;;9.41;59.73;98970.78;4948145;28;114002;-88
2022/01/02 08:17:59;;;;;;;5.90;4.60;;;8.80;90.10;;;9.38;59.96;98976.91;4944317;28;124046;-87
2022/01/02 08:20:27;;;;;;;6.23;4.37;;;8.90;90.10;;;9.34;59.79;98976.69;4945042;28;123760;-88
2022/01/02 08:22:56;;;;;;;6.10;4.40;;;8.80;90.10;;;9.36;59.97;98962.59;4952125;28;115242;-87
2022/01/02 08:25:24;;;;;;;5.30;3.53;;;8.80;90.10;;;9.37;59.45;98958.72;4947421;28;114476;-87
2022/01/02 08:27:51;;;;;;;5.93;4.27;;;8.80;90.10;;;9.41;60.00;98959.75;4947721;28;122247;-88
2022/01/02 08:30:22;;;;;;;5.07;4.10;;;8.80;90.10;;;9.44;59.78;98959.97;4942403;28;123751;-87
2022/01/02 08:33:07;;;;;;;5.57;4.30;;;8.90;90.20;;;9.48;59.77;98946.38;4947161;28;113312;-87
2022/01/02 08:35:55;;;;;;;4.60;3.70;;;8.90;90.10;;;9.51;59.67;98962.34;4947205;28;113718;-87
2022/01/02 08:38:23;;;;;;;5.40;3.97;;;8.90;90.20;;;9.54;59.91;98961.75;4950059;28;123135;-87
2022/01/02 08:40:50;;;;;;;5.33;3.70;;;9.00;90.20;;;9.61;60.02;98953.06;4946164;28;122967;-85
2022/01/02 08:43:35;;;;;;;4.93;4.17;;;9.00;90.20;;;9.68;59.97;98948.81;4946288;28;114495;-87
2022/01/02 08:46:21;;;;;;;4.87;4.37;;;9.10;90.30;;;9.70;59.74;98952.09;4975841;28;114093;-87
2022/01/02 08:49:26;;;;;;;5.07;3.77;;;9.00;90.20;;;9.70;59.51;98949.34;4941575;28;123809;-88
2022/01/02 08:51:55;;;;;;;4.50;3.73;;;9.10;90.20;;;9.73;60.06;98954.25;4943722;28;123997;-88
2022/01/02 08:54:22;;;;;;;9.20;4.60;;;9.10;90.20;;;9.79;59.91;98948.63;4948959;28;114344;-87
2022/01/02 08:56:50;;;;;;;6.97;4.73;;;9.20;90.20;;;9.83;59.86;98946.88;4937094;28;113536;-87
2022/01/02 08:59:56;;;;;;;5.30;4.27;;;9.20;90.20;;;9.87;59.69;98954.25;4949126;28;124084;-88
2022/01/02 09:02:24;;;;;;;7.67;4.43;;;9.30;90.20;;;9.88;59.47;98955.06;4949631;28;123587;-88
2022/01/02 09:04:53;;;;;;;7.40;4.30;;;9.40;90.20;;;9.89;59.40;98967.78;4931245;28;114582;-89
2022/01/02 09:07:38;;;;;;;5.60;4.13;;;9.30;90.10;;;9.90;59.57;98972.97;4951196;28;114125;-87
2022/01/02 09:10:06;;;;;;;5.73;5.10;;;9.30;90.10;;;9.91;59.63;98977.38;4943841;28;124092;-88
2022/01/02 09:12:51;;;;;;;6.27;4.00;;;9.30;90.10;;;9.95;59.71;98969.31;4945980;28;122273;-87
2022/01/02 09:15:17;;;;;;;6.03;4.13;;;9.30;90.10;;;9.98;59.94;98974.22;4947989;28;113257;-88
2022/01/02 09:17:45;;;;;;;5.83;4.00;;;9.40;90.20;;;10.04;59.55;98972.97;4937962;28;114830;-86
2022/01/02 09:21:09;;;;;;;5.83;4.03;;;9.40;90.20;;;10.09;59.75;98956.31;4946695;28;125227;-88
2022/01/02 09:23:56;;;;;;;6.00;4.30;;;9.50;90.10;;;10.11;59.25;98962.38;4942226;28;123779;-87
2022/01/02 09:27:00;;;;;;;4.80;4.30;;;9.50;90.10;;;10.14;59.71;98964.50;4947040;28;114040;-88
2022/01/02 09:29:27;;;;;;;6.50;4.53;;;9.60;90.10;;;10.18;59.47;98961.94;4973182;28;114108;-86
2022/01/02 09:32:14;;;;;;;4.60;4.10;;;9.60;90.00;;;10.22;59.23;98967.69;4951142;28;123408;-87
2022/01/02 09:34:45;;;;;;;8.03;4.87;;;9.60;89.90;;;10.18;59.12;98954.50;4953339;28;123088;-88
2022/01/02 09:37:14;;;;;;;6.17;4.23;;;9.60;89.90;;;10.21;59.18;98963.28;4980623;28;114440;-87
2022/01/02 09:40:01;;;;;;;4.30;3.53;;;9.60;89.80;;;10.26;59.27;98977.00;4970092;28;113699;-88
2022/01/02 09:42:27;;;;;;;5.40;4.40;;;9.70;89.90;;;10.31;59.36;98980.50;4986871;28;123471;-88
2022/01/02 09:45:13;;;;;;;5.53;4.20;;;9.70;89.90;;;10.36;58.75;98977.66;4967475;28;123590;-87
2022/01/02 09:47:44;;;;;;;5.27;3.80;;;9.80;89.90;;;10.40;58.74;98983.41;4972811;28;113878;-88
2022/01/02 09:50:11;;;;;;;6.87;3.60;;;9.80;89.90;;;10.46;59.07;98975.81;4971156;28;113466;-85
2022/01/02 09:52:56;;;;;;;5.33;4.07;;;10.20;89.10;;;10.52;58.48;98971.81;4977464;28;123356;-87
2022/01/02 09:55:24;;;;;;;6.30;3.53;;;9.90;89.70;;;10.56;58.52;98968.13;4981077;28;123997;-87
2022/01/02 09:57:53;;;;;;;4.67;3.93;;;9.90;89.80;;;10.61;58.47;98968.03;4982893;28;113414;-87
2022/01/02 10:00:20;;;;;;;5.70;4.10;;;10.00;88.70;;;10.68;58.50;98953.78;4985529;28;114003;-87
2022/01/02 10:03:09;;;;;;;4.43;3.83;;;10.00;88.60;;;10.70;58.70;98956.25;4983007;28;124394;-86
2022/01/02 10:06:01;;;;;;;5.43;4.27;;;10.10;88.50;;;10.72;58.50;98953.97;4976902;28;123385;-86
2022/01/02 10:08:34;;;;;;;6.63;3.70;;;10.10;88.50;;;10.73;58.64;98952.88;4950226;28;114574;-87
2022/01/02 10:11:17;;;;;;;5.37;3.80;;;10.10;89.20;;;10.77;58.28;98945.56;4933638;28;114602;-87
2022/01/02 10:13:53;;;;;;;4.87;3.73;;;10.20;88.60;;;10.82;58.84;98956.53;4940347;28;124340;-87
2022/01/02 10:16:41;;;;;;;6.10;4.37;;;10.20;88.60;;;10.84;58.38;98951.50;4939941;28;124352;-87
2022/01/02 10:19:36;;;;;;;4.20;3.80;;;10.30;88.60;;;10.89;58.61;98950.59;4945334;28;114219;-87
2022/01/02 10:22:05;;;;;;;4.33;3.70;;;10.20;88.50;;;10.94;58.21;98936.66;4959310;28;114593;-87
2022/01/02 10:24:36;;;;;;;4.93;3.97;;;10.30;88.50;;;10.98;57.93;98935.69;4935956;28;123775;-87
2022/01/02 10:27:12;;;;;;;5.90;4.00;;;10.40;88.40;;;11.02;57.90;98947.78;4941160;28;124087;-87
2022/01/02 10:29:56;;;;;;;4.57;3.73;;;10.40;88.40;;;11.05;58.29;98936.09;4946662;28;113426;-89
2022/01/02 10:32:43;;;;;;;5.93;4.23;;;10.40;88.30;;;11.06;57.65;98923.91;4952963;28;114384;-87
2022/01/02 10:35:24;;;;;;;6.07;4.37;;;10.40;88.10;;;11.04;57.71;98917.03;4945900;28;124053;-86
2022/01/02 10:38:01;;;;;;;7.40;4.90;;;10.50;88.00;;;11.00;57.76;98908.56;4948924;28;122009;-86
2022/01/02 10:40:39;;;;;;;7.20;4.70;;;10.40;87.70;;;10.94;57.88;98898.75;4947235;28;114255;-86
2022/01/02 10:43:25;;;;;;;8.77;5.30;;;10.40;88.20;;;10.89;58.33;98898.88;4936315;28;113558;-86
2022/01/02 10:45:55;;;;;;;10.00;5.40;;;10.40;88.20;;;10.86;58.64;98893.97;4951722;28;124528;-86
2022/01/02 10:48:41;;;;;;;7.97;4.90;;;10.30;88.60;;;10.92;58.91;98897.44;4947728;28;123574;-86
2022/01/02 10:51:17;;;;;;;6.80;5.10;;;10.40;88.80;;;10.96;58.85;98893.75;4957083;28;114403;-87
2022/01/02 10:54:02;;;;;;;5.60;4.60;;;10.40;88.80;;;11.01;58.30;98887.25;4941401;28;113603;-86
2022/01/02 10:56:30;;;;;;;5.00;4.10;;;10.40;88.50;;;11.02;58.17;98881.44;4943512;28;123777;-87
2022/01/02 10:59:00;;;;;;;6.33;4.43;;;10.50;88.40;;;11.05;58.59;98886.31;4946225;28;123775;-88
2022/01/02 11:01:27;;;;;;;5.60;4.40;;;10.50;88.30;;;11.12;58.33;98887.81;4947411;28;114888;-88
2022/01/02 11:03:59;;;;;;;4.90;4.40;;;10.60;88.30;;;11.19;58.20;98907.56;4942505;28;114069;-86
2022/01/02 11:06:34;;;;;;;12.80;7.00;;;10.60;88.30;;;11.27;58.20;98906.81;4951835;28;122941;-88